Time;durP1;ratioP1;P1;durP2;ratioP2;P2;SDS_P1;SDS_P2;PMS_P1;PMS_P2;Temp;Humidity;BMP_temperature;BMP_pressure;BME280_temperature;BME280_humidity;BME280_pressure;Samples;Min_cycle;Max_cycle;Signal;HPM_P1;HPM_P2
2021/03/25 00:01:16;;;;;;;19.40;8.50;;;;;;;;;;4860638;29;20072;-81
2021/03/25 00:03:50;;;;;;;16.88;8.65;;;9.00;99.90;;;;;;4844544;29;20049;-81
2021/03/25 00:06:18;;;;;;;15.23;8.98;;;;;;;;;;4853515;29;20053;-85
2021/03/25 00:08:45;;;;;;;16.60;8.50;;;;;;;;;;4841995;29;20061;-81
2021/03/25 00:11:13;;;;;;;22.40;10.27;;;;;;;;;;4849905;29;20648;-82
2021/03/25 00:13:40;;;;;;;18.23;8.60;;;;;;;;;;4855358;29;20064;-82
2021/03/25 00:16:11;;;;;;;19.58;8.65;;;;;;;;;;4860625;29;20050;-79
2021/03/25 00:18:39;;;;;;;21.50;9.43;;;;;;;;;;4871143;29;20053;-80
2021/03/25 00:21:08;;;;;;;19.60;8.25;;;8.70;99.90;;;;;;4854127;29;20061;-81
2021/03/25 00:23:36;;;;;;;18.38;10.27;;;;;;;;;;4847963;29;20053;-79
2021/03/25 00:26:04;;;;;;;26.88;11.23;;;;;;;;;;4860359;29;20494;-80
2021/03/25 00:28:32;;;;;;;26.38;9.80;;;;;;;;;;4847948;29;20054;-80
2021/03/25 00:30:59;;;;;;;21.55;10.68;;;;;;;;;;4845971;29;20049;-82
2021/03/25 00:33:27;;;;;;;20.85;9.80;;;;;;;;;;4847910;29;20128;-81
2021/03/25 00:35:55;;;;;;;18.75;10.70;;;;;;;;;;4859904;29;20065;-81
2021/03/25 00:38:25;;;;;;;22.77;9.93;;;;;;;;;;4838321;29;20072;-82
2021/03/25 00:40:53;;;;;;;26.40;11.43;;;;;;;;;;4829435;29;20053;-80
2021/03/25 00:43:22;;;;;;;22.48;10.43;;;8.40;99.90;;;;;;4859142;29;20053;-80
2021/03/25 00:45:50;;;;;;;25.02;11.48;;;8.30;99.90;;;;;;4844128;29;20502;-80
2021/03/25 00:48:20;;;;;;;20.73;9.57;;;8.40;99.90;;;;;;4835732;29;20058;-80
2021/03/25 00:50:54;;;;;;;21.75;9.20;;;8.20;99.90;;;;;;4841541;29;20058;-80
2021/03/25 00:53:25;;;;;;;23.63;11.23;;;8.40;99.90;;;;;;4856370;29;20057;-82
2021/03/25 00:55:53;;;;;;;23.00;11.10;;;;;;;;;;4847854;29;20355;-81
2021/03/25 00:58:22;;;;;;;20.50;10.52;;;;;;;;;;4845283;29;20057;-81
2021/03/25 01:00:49;;;;;;;25.48;9.60;;;;;;;;;;4858178;29;20076;-81
2021/03/25 01:03:20;;;;;;;23.40;10.27;;;8.20;99.90;;;;;;4858633;29;20054;-81
2021/03/25 01:05:48;;;;;;;22.27;11.50;;;;;;;;;;4865638;29;20057;-80
2021/03/25 01:08:16;;;;;;;19.52;9.82;;;;;;;;;;4858824;29;20054;-79
2021/03/25 01:11:01;;;;;;;23.95;13.02;;;;;;;;;;4843214;29;20058;-81
2021/03/25 01:13:54;;;;;;;20.02;10.43;;;8.10;99.90;;;;;;4858087;29;20486;-79
2021/03/25 01:16:32;;;;;;;35.25;12.85;;;8.10;99.90;;;;;;4840885;29;20062;-81
2021/03/25 01:19:04;;;;;;;23.60;11.93;;;8.10;99.90;;;;;;4859070;29;20046;-81
2021/03/25 01:21:32;;;;;;;24.52;11.13;;;;;;;;;;4854706;29;20072;-80
2021/03/25 01:24:02;;;;;;;29.52;11.43;;;;;;;;;;4845435;29;20061;-79
2021/03/25 01:26:29;;;;;;;21.73;10.57;;;;;;;;;;4854192;29;20058;-80
2021/03/25 01:29:00;;;;;;;22.67;12.13;;;;;;;;;;4857536;29;20057;-82
2021/03/25 01:31:30;;;;;;;24.63;11.02;;;7.80;99.90;;;;;;4828027;29;20050;-82
2021/03/25 01:34:02;;;;;;;23.23;11.05;;;;;;;;;;4843743;29;20070;-79
2021/03/25 01:36:31;;;;;;;24.10;10.07;;;;;;;;;;4832619;29;20696;-79
2021/03/25 01:38:59;;;;;;;26.75;11.07;;;;;;;;;;4848366;29;20069;-81
2021/03/25 01:41:35;;;;;;;19.15;9.82;;;7.70;99.90;;;;;;4842997;29;20053;-82
2021/03/25 01:44:05;;;;;;;20.90;9.95;;;7.60;99.90;;;;;;4844095;29;20061;-80
2021/03/25 01:46:39;;;;;;;21.43;9.27;;;8.00;99.90;;;;;;4843842;29;20053;-80
2021/03/25 01:49:11;;;;;;;24.13;11.23;;;7.60;99.90;;;;;;4842360;29;20658;-84
2021/03/25 01:52:20;;;;;;;20.92;8.68;;;7.60;99.90;;;;;;4857584;29;20672;-84
2021/03/25 01:54:53;;;;;;;20.25;10.07;;;7.60;99.90;;;;;;4842250;29;20062;-82
2021/03/25 01:57:41;;;;;;;17.23;8.55;;;;;;;;;;4862641;29;20054;-83
2021/03/25 02:00:20;;;;;;;25.30;8.65;;;7.50;99.90;;;;;;4846330;29;20053;-84
2021/03/25 02:02:54;;;;;;;19.42;8.63;;;;;;;;;;4859671;29;20054;-81
2021/03/25 02:05:35;;;;;;;21.02;9.27;;;7.40;99.90;;;;;;4862250;29;20061;-82
2021/03/25 02:08:29;;;;;;;22.00;8.02;;;7.40;99.90;;;;;;4840777;29;20064;-82
2021/03/25 02:11:03;;;;;;;26.05;10.30;;;7.50;99.90;;;;;;4864397;29;20049;-82
2021/03/25 02:13:54;;;;;;;22.58;8.65;;;7.30;99.90;;;;;;4842566;29;20062;-81
2021/03/25 02:16:36;;;;;;;19.67;10.30;;;7.20;99.90;;;;;;4852331;29;20069;-85
2021/03/25 02:19:29;;;;;;;17.85;7.78;;;;;;;;;;4848108;29;20049;-86
2021/03/25 02:22:28;;;;;;;25.70;8.80;;;7.10;99.90;;;;;;4845955;29;20058;-82
2021/03/25 02:25:24;;;;;;;36.70;9.85;;;7.10;99.90;;;;;;4846030;29;20069;-86
2021/03/25 02:28:27;;;;;;;32.60;8.25;;;7.00;99.90;;;;;;4847881;29;20060;-84
2021/03/25 02:31:08;;;;;;;21.52;7.93;;;7.00;99.90;;;;;;4851837;29;20056;-84
2021/03/25 02:33:40;;;;;;;24.65;8.88;;;6.90;99.90;;;;;;4841643;29;20068;-84
2021/03/25 02:36:19;;;;;;;22.92;8.55;;;6.90;99.90;;;;;;4853670;29;20042;-84
2021/03/25 02:38:54;;;;;;;22.35;9.07;;;6.90;99.90;;;;;;4853521;29;20049;-83
2021/03/25 02:41:33;;;;;;;17.85;8.32;;;6.80;99.90;;;;;;4839156;29;20065;-81
2021/03/25 02:44:03;;;;;;;24.50;9.23;;;6.80;99.90;;;;;;4854515;29;20062;-82
2021/03/25 02:46:38;;;;;;;19.35;8.82;;;;;;;;;;4853982;29;20517;-85
2021/03/25 02:49:17;;;;;;;19.13;9.02;;;6.80;99.90;;;;;;4854545;29;20403;-87
2021/03/25 02:52:01;;;;;;;15.18;7.97;;;6.70;99.90;;;;;;4853849;29;20061;-85
2021/03/25 02:54:30;;;;;;;18.77;8.30;;;;;;;;;;4840134;29;20049;-82
2021/03/25 02:57:07;;;;;;;19.08;6.85;;;6.80;99.90;;;;;;4837926;29;20172;-85
2021/03/25 02:59:39;;;;;;;25.60;9.90;;;6.60;99.90;;;;;;4825027;29;20069;-85
2021/03/25 03:02:50;;;;;;;18.80;7.55;;;6.40;99.90;;;;;;4858433;29;20064;-87
2021/03/25 03:05:41;;;;;;;21.63;8.85;;;6.50;99.90;;;;;;4824553;29;20517;-88
2021/03/25 03:08:19;;;;;;;20.10;7.03;;;6.60;99.90;;;;;;4856155;29;20494;-86
2021/03/25 03:11:07;;;;;;;22.88;9.55;;;6.50;99.90;;;;;;4836663;29;20049;-85
2021/03/25 03:13:40;;;;;;;15.02;6.53;;;6.40;99.90;;;;;;4857831;29;20046;-87
2021/03/25 03:16:15;;;;;;;22.35;7.95;;;6.40;99.90;;;;;;4848114;29;20062;-83
2021/03/25 03:19:04;;;;;;;16.85;8.02;;;6.30;99.90;;;;;;4835663;29;20076;-84
2021/03/25 03:21:45;;;;;;;19.70;8.10;;;6.40;99.90;;;;;;4846956;29;20059;-83
2021/03/25 03:24:19;;;;;;;19.70;6.85;;;6.20;99.90;;;;;;4860069;29;20054;-82
2021/03/25 03:27:14;;;;;;;16.65;6.10;;;6.40;99.90;;;;;;4858675;29;20203;-82
2021/03/25 03:29:44;;;;;;;23.83;6.55;;;6.30;99.90;;;;;;4852796;29;20058;-84
2021/03/25 03:32:16;;;;;;;21.17;7.82;;;;;;;;;;4855473;29;20136;-82
2021/03/25 03:35:08;;;;;;;19.35;8.13;;;6.30;99.90;;;;;;4852821;29;20062;-82
2021/03/25 03:37:39;;;;;;;20.77;7.63;;;6.30;99.90;;;;;;4840327;29;20084;-80
2021/03/25 03:40:24;;;;;;;22.55;6.40;;;6.30;99.90;;;;;;4838644;29;20061;-83
2021/03/25 03:43:01;;;;;;;20.42;7.63;;;6.20;99.90;;;;;;4855287;29;20062;-80
2021/03/25 03:45:34;;;;;;;20.08;6.85;;;6.30;99.90;;;;;;4854639;29;20518;-83
2021/03/25 03:48:23;;;;;;;16.13;7.07;;;6.00;99.90;;;;;;4847350;29;20495;-84
2021/03/25 03:50:54;;;;;;;29.42;7.03;;;6.10;99.90;;;;;;4852325;29;20057;-82
2021/03/25 03:53:26;;;;;;;14.13;5.53;;;6.10;99.90;;;;;;4838565;29;20075;-85
2021/03/25 03:56:28;;;;;;;21.60;6.05;;;6.10;99.90;;;;;;4853651;29;20061;-83
2021/03/25 03:59:03;;;;;;;16.42;7.85;;;6.10;99.90;;;;;;4849280;29;20054;-81
2021/03/25 04:01:51;;;;;;;18.27;5.53;;;6.00;99.90;;;;;;4839166;29;20077;-82
2021/03/25 04:04:27;;;;;;;16.65;6.90;;;6.10;99.90;;;;;;4836044;29;20062;-81
2021/03/25 04:07:18;;;;;;;23.60;10.77;;;6.00;99.90;;;;;;4835262;29;20446;-83
2021/03/25 04:10:27;;;;;;;21.73;7.95;;;6.10;99.90;;;;;;4835710;29;20049;-83
2021/03/25 04:13:23;;;;;;;18.50;5.78;;;6.10;99.90;;;;;;4854093;29;20461;-83
2021/03/25 04:15:53;;;;;;;18.70;6.35;;;5.80;99.90;;;;;;4855421;29;20057;-83
2021/03/25 04:18:40;;;;;;;15.95;7.63;;;5.80;99.90;;;;;;4833959;29;20065;-83
2021/03/25 04:21:51;;;;;;;23.17;9.05;;;5.80;99.90;;;;;;4836894;29;20058;-82
2021/03/25 04:24:26;;;;;;;14.18;6.03;;;5.70;99.90;;;;;;4853344;29;20050;-82
2021/03/25 04:27:05;;;;;;;20.52;7.15;;;6.00;99.90;;;;;;4840112;29;20513;-82
2021/03/25 04:29:47;;;;;;;19.17;5.97;;;5.40;99.90;;;;;;4847004;29;20076;-84
2021/03/25 04:32:15;;;;;;;14.18;5.20;;;;;;;;;;4839455;29;20506;-83
2021/03/25 04:34:42;;;;;;;20.23;6.15;;;;;;;;;;4840279;29;20054;-82
2021/03/25 04:37:10;;;;;;;18.85;7.38;;;;;;;;;;4839048;29;20069;-82
2021/03/25 04:39:39;;;;;;;13.90;6.80;;;5.40;99.90;;;;;;4839452;29;20061;-85
2021/03/25 04:42:08;;;;;;;18.85;6.88;;;5.20;99.90;;;;;;4839766;29;20061;-82
2021/03/25 04:44:44;;;;;;;16.58;5.88;;;5.30;99.90;;;;;;4837839;29;20066;-82
2021/03/25 04:47:41;;;;;;;13.82;6.20;;;5.40;99.90;;;;;;4853483;29;20069;-85
2021/03/25 04:50:34;;;;;;;21.48;7.35;;;5.40;99.90;;;;;;4851028;29;20046;-85
2021/03/25 04:53:06;;;;;;;23.50;6.97;;;5.20;99.90;;;;;;4843247;29;20077;-81
2021/03/25 04:55:35;;;;;;;14.75;6.60;;;5.30;99.90;;;;;;4827717;29;20057;-83
2021/03/25 04:58:09;;;;;;;19.83;6.00;;;5.10;99.90;;;;;;4839801;29;20065;-82
2021/03/25 05:00:42;;;;;;;21.00;6.78;;;5.30;99.90;;;;;;4843225;29;20073;-82
2021/03/25 05:03:21;;;;;;;19.63;6.22;;;5.20;99.90;;;;;;4838159;29;20053;-84
2021/03/25 05:05:54;;;;;;;18.35;6.03;;;5.20;99.90;;;;;;4833031;29;20068;-82
2021/03/25 05:08:25;;;;;;;23.48;6.70;;;5.40;99.90;;;;;;4835776;29;20058;-82
2021/03/25 05:10:58;;;;;;;15.65;7.00;;;5.20;99.90;;;;;;4840412;29;20427;-82
2021/03/25 05:13:32;;;;;;;16.50;5.07;;;5.10;99.90;;;;;;4854165;29;20057;-84
2021/03/25 05:16:32;;;;;;;20.75;5.45;;;5.10;99.90;;;;;;4840332;29;20427;-82
2021/03/25 05:19:17;;;;;;;17.02;6.50;;;5.10;99.90;;;;;;4840229;29;20058;-83
2021/03/25 05:22:08;;;;;;;17.60;5.30;;;5.10;99.90;;;;;;4837850;29;20054;-83
2021/03/25 05:24:46;;;;;;;12.25;5.57;;;5.00;99.90;;;;;;4836819;29;20058;-82
2021/03/25 05:27:34;;;;;;;14.73;7.70;;;5.10;99.90;;;;;;4838864;29;20518;-84
2021/03/25 05:30:08;;;;;;;18.77;6.13;;;4.90;99.90;;;;;;4845209;29;20065;-82
2021/03/25 05:32:44;;;;;;;21.20;5.28;;;5.00;99.90;;;;;;4840317;29;20054;-83
2021/03/25 05:35:19;;;;;;;20.55;5.38;;;5.00;99.90;;;;;;4825972;29;20533;-82
2021/03/25 05:37:47;;;;;;;21.67;6.40;;;;;;;;;;4837477;29;20542;-83
2021/03/25 05:40:25;;;;;;;14.65;5.65;;;4.80;99.90;;;;;;4839097;29;20054;-87
2021/03/25 05:43:19;;;;;;;15.57;6.10;;;4.90;99.90;;;;;;4838081;29;20050;-85
2021/03/25 05:46:08;;;;;;;18.05;6.38;;;4.90;99.90;;;;;;4850179;29;20069;-86
2021/03/25 05:48:36;;;;;;;15.10;5.38;;;;;;;;;;4836430;29;20054;-85
2021/03/25 05:51:40;;;;;;;23.33;6.18;;;4.90;99.90;;;;;;4851432;29;20058;-84
2021/03/25 05:54:25;;;;;;;18.83;6.88;;;4.70;99.90;;;;;;4833669;29;20517;-83
2021/03/25 05:57:39;;;;;;;20.23;6.43;;;4.60;99.90;;;;;;4851292;29;20058;-84
2021/03/25 06:00:46;;;;;;;14.07;5.32;;;4.70;99.90;;;;;;4815043;29;20077;-84
2021/03/25 06:03:16;;;;;;;12.63;5.28;;;4.40;99.90;;;;;;4800893;29;20061;-86
2021/03/25 06:05:49;;;;;;;15.10;6.50;;;4.80;99.90;;;;;;4825938;29;20062;-87
2021/03/25 06:08:45;;;;;;;14.30;6.50;;;4.60;99.90;;;;;;4837670;29;20060;-88
2021/03/25 06:11:48;;;;;;;19.67;6.85;;;4.70;99.90;;;;;;4832811;29;20839;-86
2021/03/25 06:14:15;;;;;;;22.65;6.45;;;;;;;;;;4836908;29;20064;-88
2021/03/25 06:16:43;;;;;;;9.13;4.70;;;;;;;;;;4852139;29;20062;-85
2021/03/25 06:19:10;;;;;;;15.43;4.40;;;;;;;;;;4856278;29;20045;-87
2021/03/25 06:21:38;;;;;;;18.52;4.70;;;;;;;;;;4843015;29;20418;-81
2021/03/25 06:24:31;;;;;;;12.85;6.03;;;4.50;99.90;;;;;;4845128;29;20057;-87
2021/03/25 06:27:06;;;;;;;12.07;3.92;;;4.70;99.90;;;;;;4848751;29;20415;-87
2021/03/25 06:29:42;;;;;;;13.18;4.20;;;4.70;99.90;;;;;;4872325;29;20053;-86
2021/03/25 06:32:34;;;;;;;14.27;3.92;;;5.00;99.90;;;;;;4844176;29;20066;-86
2021/03/25 06:35:09;;;;;;;12.90;3.15;;;4.90;99.90;;;;;;4826570;29;20446;-85
2021/03/25 06:37:42;;;;;;;9.10;4.13;;;4.70;99.90;;;;;;4844130;29;20062;-86
2021/03/25 06:40:39;;;;;;;13.27;4.85;;;4.90;99.90;;;;;;4833594;29;20062;-87
2021/03/25 06:43:27;;;;;;;9.02;4.50;;;5.10;99.90;;;;;;4837279;29;20050;-87
2021/03/25 06:46:21;;;;;;;11.15;5.22;;;5.20;99.90;;;;;;4852766;29;20084;-87
2021/03/25 06:48:54;;;;;;;6.38;3.72;;;5.20;99.90;;;;;;4836689;29;20050;-86
2021/03/25 06:51:21;;;;;;;14.68;3.60;;;;;;;;;;4854683;29;20054;-85
2021/03/25 06:53:56;;;;;;;11.65;4.25;;;5.40;99.90;;;;;;4839482;29;20053;-85
2021/03/25 06:56:45;;;;;;;11.05;3.35;;;5.50;99.90;;;;;;4855619;29;20066;-86
2021/03/25 06:59:29;;;;;;;14.40;3.40;;;5.60;99.90;;;;;;4852171;29;20080;-86
2021/03/25 07:02:09;;;;;;;10.48;3.03;;;;;;;;;;4842903;29;20517;-84
2021/03/25 07:04:42;;;;;;;8.05;3.75;;;5.70;99.90;;;;;;4842861;29;20057;-85
2021/03/25 07:07:24;;;;;;;13.13;4.75;;;5.80;99.90;;;;;;4839053;29;20049;-87
2021/03/25 07:09:52;;;;;;;16.75;4.10;;;;;;;;;;4848478;29;20062;-81
2021/03/25 07:12:23;;;;;;;8.80;3.00;;;6.00;99.90;;;;;;4845384;29;20065;-84
2021/03/25 07:14:51;;;;;;;19.30;3.60;;;6.10;99.90;;;;;;4868255;29;20050;-84
2021/03/25 07:17:38;;;;;;;11.25;3.90;;;6.10;99.90;;;;;;4850061;29;20301;-84
2021/03/25 07:20:25;;;;;;;7.07;3.13;;;6.30;99.90;;;;;;4863141;29;20772;-83
2021/03/25 07:23:13;;;;;;;16.95;4.47;;;6.50;99.90;;;;;;4859891;29;20053;-81
2021/03/25 07:25:47;;;;;;;15.38;6.10;;;6.10;99.90;;;;;;4843443;29;20046;-82
2021/03/25 07:28:22;;;;;;;19.08;6.60;;;6.70;99.90;;;;;;4840782;29;20410;-86
2021/03/25 07:31:01;;;;;;;7.25;2.88;;;6.60;99.90;;;;;;4841377;29;20057;-86
2021/03/25 07:33:38;;;;;;;13.35;3.65;;;6.70;99.90;;;;;;4857501;29;20073;-83
2021/03/25 07:36:10;;;;;;;10.43;4.05;;;6.90;99.90;;;;;;4846077;29;20454;-82
2021/03/25 07:38:39;;;;;;;3.72;2.63;;;7.00;99.90;;;;;;4854591;29;20062;-84
2021/03/25 07:41:11;;;;;;;10.60;4.18;;;;;;;;;;4838665;29;20057;-84
2021/03/25 07:43:59;;;;;;;6.40;2.80;;;7.10;99.90;;;;;;4855987;29;20076;-85
2021/03/25 07:46:31;;;;;;;12.00;3.33;;;7.30;99.90;;;;;;4828157;29;20058;-86
2021/03/25 07:49:11;;;;;;;12.38;3.22;;;7.50;99.90;;;;;;4859030;29;20062;-86
2021/03/25 07:51:56;;;;;;;8.23;3.45;;;7.40;99.90;;;;;;4843044;29;20069;-87
2021/03/25 07:54:24;;;;;;;10.00;3.42;;;;;;;;;;4859666;29;20050;-87
2021/03/25 07:57:17;;;;;;;9.65;3.13;;;7.80;99.90;;;;;;4838743;29;20072;-87
2021/03/25 07:59:51;;;;;;;10.30;3.30;;;7.90;99.90;;;;;;4818982;29;20058;-87
2021/03/25 08:02:34;;;;;;;10.43;2.72;;;8.00;99.90;;;;;;4838753;29;20058;-87
2021/03/25 08:05:29;;;;;;;11.57;4.18;;;8.20;99.90;;;;;;4840476;29;20414;-86
2021/03/25 08:08:05;;;;;;;4.32;2.50;;;8.20;99.90;;;;;;4849683;29;20149;-87
2021/03/25 08:10:36;;;;;;;12.43;4.80;;;8.50;99.90;;;;;;4835501;29;20079;-86
2021/03/25 08:13:27;;;;;;;8.05;2.22;;;8.90;99.90;;;;;;4844630;29;20058;-85
2021/03/25 08:15:55;;;;;;;5.57;3.60;;;;;;;;;;4851511;29;20081;-86
2021/03/25 08:19:00;;;;;;;7.50;2.17;;;8.80;99.90;;;;;;4850533;29;20396;-86
2021/03/25 08:21:27;;;;;;;19.50;3.78;;;;;;;;;;4846747;29;20065;-86
2021/03/25 08:24:05;;;;;;;5.55;2.47;;;9.00;99.90;;;;;;4851931;29;20681;-85
2021/03/25 08:27:00;;;;;;;6.43;2.35;;;9.10;99.90;;;;;;4849951;29;20054;-86
2021/03/25 08:29:48;;;;;;;11.23;3.72;;;9.30;99.90;;;;;;4842033;29;20057;-84
2021/03/25 08:32:29;;;;;;;15.82;3.00;;;9.20;99.90;;;;;;4859938;29;20061;-88
2021/03/25 08:35:15;;;;;;;5.63;2.03;;;9.30;99.90;;;;;;4855046;29;20054;-87
2021/03/25 08:38:13;;;;;;;8.52;2.65;;;9.30;99.90;;;;;;4853573;29;20057;-88
2021/03/25 08:40:56;;;;;;;5.85;2.67;;;9.30;99.90;;;;;;4829286;29;20050;-87
2021/03/25 08:43:35;;;;;;;5.03;2.25;;;9.00;99.90;;;;;;4852044;29;20048;-88
2021/03/25 08:46:20;;;;;;;11.25;2.28;;;10.10;99.90;;;;;;4837470;29;20057;-87
2021/03/25 08:49:01;;;;;;;14.25;2.65;;;9.50;99.90;;;;;;4839136;29;20786;-86
2021/03/25 08:51:35;;;;;;;9.55;2.90;;;9.50;99.90;;;;;;4822570;29;20054;-88
2021/03/25 08:54:21;;;;;;;6.53;2.35;;;9.70;99.90;;;;;;4852509;29;20065;-87
2021/03/25 08:56:57;;;;;;;6.38;2.45;;;9.80;99.90;;;;;;4820293;29;20050;-86
2021/03/25 08:59:57;;;;;;;12.98;2.13;;;9.80;99.90;;;;;;4851100;29;20072;-87
2021/03/25 09:02:36;;;;;;;5.80;3.20;;;9.80;99.90;;;;;;4822385;29;20093;-87
2021/03/25 09:05:04;;;;;;;7.35;1.92;;;;;;;;;;4835811;29;20442;-88
2021/03/25 09:07:33;;;;;;;6.10;2.85;;;10.10;99.90;;;;;;4837713;29;20405;-86
2021/03/25 09:10:08;;;;;;;8.40;3.65;;;10.20;99.90;;;;;;4817976;29;20141;-87
2021/03/25 09:12:36;;;;;;;5.32;1.80;;;;;;;;;;4837845;29;20061;-88
2021/03/25 09:15:06;;;;;;;8.43;2.95;;;10.20;99.90;;;;;;4834807;29;20047;-87
2021/03/25 09:17:40;;;;;;;6.97;1.98;;;10.50;99.90;;;;;;4836210;29;20080;-87
2021/03/25 09:20:18;;;;;;;6.13;1.92;;;10.60;99.90;;;;;;4841145;29;20796;-87
2021/03/25 09:22:46;;;;;;;7.35;1.77;;;;;;;;;;4836603;29;20514;-86
2021/03/25 09:25:27;;;;;;;13.52;1.60;;;10.70;99.90;;;;;;4836927;29;20049;-89
2021/03/25 09:28:06;;;;;;;8.02;2.28;;;;;;;;;;4837250;29;20054;-86
2021/03/25 09:30:33;;;;;;;6.88;2.90;;;;;;;;;;4839559;29;20065;-88
2021/03/25 09:33:38;;;;;;;7.55;1.95;;;13.40;99.90;;;;;;4857336;29;20075;-86
2021/03/25 09:36:18;;;;;;;5.60;1.80;;;11.30;99.90;;;;;;4851693;29;20058;-87
2021/03/25 09:38:59;;;;;;;8.95;3.15;;;11.60;99.90;;;;;;4853061;29;20046;-87
2021/03/25 09:41:30;;;;;;;;;;;11.50;99.90;;;;;;4839374;29;20050;-90
2021/03/25 09:44:14;;;;;;;5.85;1.92;;;11.90;99.90;;;;;;4839111;29;19936;-88
2021/03/25 09:46:54;;;;;;;13.57;2.13;;;12.10;99.90;;;;;;4834857;29;20058;-88
2021/03/25 09:49:53;;;;;;;11.98;2.85;;;12.20;99.90;;;;;;4836168;29;20058;-87
2021/03/25 09:52:38;;;;;;;12.57;2.97;;;12.40;99.90;;;;;;4848043;29;20057;-88
2021/03/25 09:55:05;;;;;;;10.50;3.30;;;;;;;;;;4855610;29;20066;-88
2021/03/25 09:57:51;;;;;;;12.85;4.55;;;;;;;;;;4834315;29;20054;-87
2021/03/25 10:00:25;;;;;;;11.02;3.13;;;12.70;99.90;;;;;;4844487;29;20092;-86
2021/03/25 10:03:06;;;;;;;11.50;3.13;;;12.50;99.90;;;;;;4861984;29;20064;-87
2021/03/25 10:05:40;;;;;;;4.45;2.00;;;12.40;99.90;;;;;;4858345;29;20061;-90
2021/03/25 10:08:14;;;;;;;17.17;4.45;;;12.40;99.90;;;;;;4838557;29;20066;-89
2021/03/25 10:10:43;;;;;;;6.07;3.00;;;;;;;;;;4844578;29;20409;-88
2021/03/25 10:13:16;;;;;;;10.50;2.90;;;;;;;;;;4845765;29;20129;-89
2021/03/25 10:15:56;;;;;;;16.70;5.28;;;12.60;99.90;;;;;;4856620;29;20061;-88
2021/03/25 10:18:26;;;;;;;11.80;3.25;;;12.30;99.90;;;;;;4837415;29;20518;-89
2021/03/25 10:21:06;;;;;;;13.15;3.70;;;12.50;99.90;;;;;;4845879;29;20649;-89
2021/03/25 10:23:38;;;;;;;13.50;3.05;;;12.30;99.90;;;;;;4841706;29;20050;-90
2021/03/25 10:26:12;;;;;;;14.68;1.95;;;;;;;;;;4857415;29;20061;-89
2021/03/25 10:29:04;;;;;;;12.73;2.40;;;12.60;99.90;;;;;;4859311;29;20046;-90
2021/03/25 10:31:57;;;;;;;9.68;2.25;;;12.70;99.90;;;;;;4821857;29;20502;-90
2021/03/25 10:34:28;;;;;;;10.68;3.30;;;;;;;;;;4836074;29;20053;-87
2021/03/25 10:37:27;;;;;;;7.80;3.35;;;12.80;99.90;;;;;;4855765;29;20058;-87
2021/03/25 10:40:15;;;;;;;10.65;2.67;;;12.90;99.90;;;;;;4858451;29;20082;-87
2021/03/25 10:42:53;;;;;;;14.80;2.95;;;12.80;99.90;;;;;;4839262;29;20053;-87
2021/03/25 10:45:37;;;;;;;6.20;2.10;;;12.90;99.90;;;;;;4843767;29;20050;-89
2021/03/25 10:48:22;;;;;;;12.68;3.00;;;12.90;99.90;;;;;;4844965;29;20060;-89
2021/03/25 10:50:50;;;;;;;6.78;2.03;;;;;;;;;;4845024;29;20054;-89
2021/03/25 10:53:21;;;;;;;8.18;3.47;;;13.00;99.90;;;;;;4848004;29;20054;-90
2021/03/25 10:55:53;;;;;;;7.97;1.90;;;13.00;99.90;;;;;;4845431;29;20054;-90
2021/03/25 10:59:01;;;;;;;9.25;2.28;;;13.00;99.90;;;;;;4850556;29;20494;-89
2021/03/25 11:01:30;;;;;;;12.20;3.47;;;13.20;99.90;;;;;;4867131;29;20058;-86
2021/03/25 11:03:59;;;;;;;10.02;2.58;;;13.10;99.90;;;;;;4848267;29;20061;-89
2021/03/25 11:06:27;;;;;;;4.40;2.15;;;;;;;;;;4847959;29;20073;-89
2021/03/25 11:09:15;;;;;;;10.13;2.90;;;13.30;99.90;;;;;;4837961;29;20066;-89
2021/03/25 11:11:43;;;;;;;13.88;3.72;;;;;;;;;;4848632;29;20326;-90
2021/03/25 11:14:31;;;;;;;16.40;1.95;;;13.20;99.90;;;;;;4863580;29;20061;-89
2021/03/25 11:17:12;;;;;;;8.38;2.70;;;13.20;99.90;;;;;;4855929;29;20073;-89
2021/03/25 11:19:41;;;;;;;13.93;3.03;;;13.00;99.90;;;;;;4857783;29;20434;-89
2021/03/25 11:22:12;;;;;;;5.28;1.75;;;13.00;99.90;;;;;;4180092;29;10000637;-89
2021/03/25 11:24:40;;;;;;;4.40;2.05;;;13.00;99.90;;;;;;4852642;29;20054;-89
2021/03/25 11:27:18;;;;;;;13.68;5.47;;;13.10;99.90;;;;;;4854795;29;20053;-89
2021/03/25 11:29:47;;;;;;;9.88;4.60;;;13.10;99.90;;;;;;4846597;29;20421;-88
2021/03/25 11:32:23;;;;;;;17.30;3.30;;;13.50;99.90;;;;;;4834050;29;20054;-89
2021/03/25 11:34:53;;;;;;;15.98;4.20;;;13.30;99.90;;;;;;4851440;29;20060;-90
2021/03/25 11:37:26;;;;;;;10.35;2.40;;;13.40;99.90;;;;;;4830896;29;20054;-89
2021/03/25 11:40:17;;;;;;;8.02;2.67;;;13.30;99.90;;;;;;4838561;29;20174;-89
2021/03/25 11:42:47;;;;;;;8.63;2.53;;;13.60;99.90;;;;;;4841895;29;20057;-89
2021/03/25 11:45:37;;;;;;;3.85;1.85;;;13.70;99.90;;;;;;4824929;29;20054;-88
2021/03/25 11:48:27;;;;;;;9.60;2.00;;;13.60;99.90;;;;;;4841121;29;20105;-90
2021/03/25 11:51:18;;;;;;;10.65;2.05;;;13.70;99.90;;;;;;4854059;29;20494;-88
2021/03/25 11:53:46;;;;;;;10.13;1.90;;;;;;;;;;4855719;29;20057;-88
2021/03/25 11:56:22;;;;;;;6.43;2.22;;;13.90;99.90;;;;;;4844360;29;20069;-88
2021/03/25 11:58:55;;;;;;;6.82;2.05;;;14.10;99.90;;;;;;4816997;29;20072;-90
2021/03/25 12:01:26;;;;;;;14.00;2.40;;;14.10;99.90;;;;;;4810545;29;20491;-88
2021/03/25 12:03:58;;;;;;;12.10;4.47;;;14.20;99.90;;;;;;4840554;29;20066;-89
2021/03/25 12:06:36;;;;;;;13.77;2.13;;;14.30;99.90;;;;;;4826339;29;20050;-90
2021/03/25 12:09:19;;;;;;;5.18;1.88;;;14.20;99.90;;;;;;4847112;29;20662;-84
2021/03/25 12:11:48;;;;;;;10.95;1.98;;;14.10;99.90;;;;;;4832918;29;20061;-86
2021/03/25 12:14:19;;;;;;;13.95;2.10;;;14.10;99.90;;;;;;4840992;29;20058;-85
2021/03/25 12:16:53;;;;;;;8.38;2.22;;;;;;;;;;4853334;29;20654;-85
2021/03/25 12:19:41;;;;;;;3.45;1.83;;;;;;;;;;4854538;29;20062;-85
2021/03/25 12:22:22;;;;;;;6.95;1.63;;;13.80;99.90;;;;;;4873342;29;20046;-86
2021/03/25 12:24:50;;;;;;;27.67;3.67;;;;;;;;;;4871396;29;20069;-85
2021/03/25 12:27:18;;;;;;;17.67;1.75;;;;;;;;;;4840406;29;20046;-87
2021/03/25 12:29:47;;;;;;;12.65;3.13;;;13.60;99.90;;;;;;4847073;29;20061;-87
2021/03/25 12:32:15;;;;;;;6.07;2.33;;;;;;;;;;4844297;29;20058;-84
2021/03/25 12:35:03;;;;;;;8.88;1.88;;;13.40;99.90;;;;;;4843760;29;20038;-87
2021/03/25 12:38:22;;;;;;;8.23;1.88;;;13.40;99.90;;;;;;4840342;29;20062;-86
2021/03/25 12:40:50;;;;;;;5.78;2.95;;;13.30;99.90;;;;;;4839566;29;20054;-86
2021/03/25 12:43:20;;;;;;;5.72;2.08;;;13.10;99.90;;;;;;4823629;29;20053;-88
2021/03/25 12:45:56;;;;;;;1.63;1.10;;;13.10;99.90;;;;;;4851416;29;20072;-87
2021/03/25 12:48:27;;;;;;;10.07;2.22;;;;;;;;;;4852842;29;20081;-88
2021/03/25 12:50:55;;;;;;;6.85;2.75;;;;;;;;;;4836367;29;20073;-88
2021/03/25 12:53:24;;;;;;;10.55;3.55;;;12.60;99.90;;;;;;4837764;29;20128;-88
2021/03/25 12:55:53;;;;;;;12.43;1.58;;;12.60;99.90;;;;;;4835352;29;20909;-88
2021/03/25 12:58:24;;;;;;;5.22;2.10;;;12.50;99.90;;;;;;4848462;29;20068;-89
2021/03/25 13:00:55;;;;;;;4.35;1.90;;;12.70;99.90;;;;;;4836188;29;20061;-87
2021/03/25 13:03:27;;;;;;;13.25;2.92;;;12.80;99.90;;;;;;4850124;29;20054;-87
2021/03/25 13:05:56;;;;;;;6.57;1.92;;;;;;;;;;4834723;29;20431;-87
2021/03/25 13:08:23;;;;;;;4.03;1.60;;;;;;;;;;4834616;29;20077;-88
2021/03/25 13:11:19;;;;;;;7.90;2.50;;;12.70;99.90;;;;;;4830383;29;20417;-87
2021/03/25 13:13:47;;;;;;;9.27;2.28;;;;;;;;;;4856309;29;20514;-87
2021/03/25 13:16:15;;;;;;;10.07;2.58;;;;;;;;;;4830907;29;20057;-86
2021/03/25 13:18:43;;;;;;;8.32;2.05;;;;;;;;;;4851482;29;20058;-86
2021/03/25 13:21:11;;;;;;;16.55;2.72;;;;;;;;;;4852115;29;20400;-85
2021/03/25 13:23:38;;;;;;;3.85;1.48;;;;;;;;;;4497816;29;10000254;-86
2021/03/25 13:26:07;;;;;;;13.40;2.60;;;12.30;99.90;;;;;;4833740;29;20145;-86
2021/03/25 13:28:36;;;;;;;5.15;1.85;;;;;;;;;;4819181;29;20050;-85
2021/03/25 13:31:04;;;;;;;4.88;2.22;;;12.10;99.90;;;;;;4832882;29;20062;-85
2021/03/25 13:33:32;;;;;;;7.10;1.63;;;;;;;;;;4837393;29;20057;-84
2021/03/25 13:36:00;;;;;;;9.80;2.42;;;12.10;99.90;;;;;;4853012;29;20054;-91
2021/03/25 13:38:28;;;;;;;13.20;3.05;;;;;;;;;;4827515;29;20053;-87
2021/03/25 13:40:56;;;;;;;9.60;2.42;;;;;;;;;;4854397;29;20069;-86
2021/03/25 13:43:30;;;;;;;8.75;2.38;;;11.80;99.90;;;;;;4858527;29;20069;-86
2021/03/25 13:45:59;;;;;;;12.73;3.38;;;11.70;99.90;;;;;;4830072;29;20374;-87
2021/03/25 13:48:27;;;;;;;11.27;2.83;;;11.70;99.90;;;;;;4839579;29;20058;-87
2021/03/25 13:50:57;;;;;;;3.72;2.28;;;11.70;99.90;;;;;;4855802;29;20498;-87
2021/03/25 13:53:25;;;;;;;12.00;3.75;;;;;;;;;;4855959;29;20077;-88
2021/03/25 13:55:54;;;;;;;8.35;1.88;;;11.40;99.90;;;;;;4836363;29;20062;-88
2021/03/25 13:58:24;;;;;;;8.90;2.00;;;11.40;99.90;;;;;;4837733;29;20065;-86
2021/03/25 14:00:52;;;;;;;8.57;2.00;;;;;;;;;;4836623;29;20057;-86
2021/03/25 14:03:21;;;;;;;12.25;3.05;;;11.40;99.90;;;;;;4851251;29;20042;-87
2021/03/25 14:05:53;;;;;;;6.55;3.20;;;11.10;99.90;;;;;;4858160;29;20053;-87